sensor_id;sensor_type;location;lat;lon;timestamp;pressure;altitude;pressure_sealevel;temperature;humidity
23363;BME280;11853;48.080;11.960;2023-02-19T00:01:33;95255.16;;;11.79;74.76
23363;BME280;11853;48.080;11.960;2023-02-19T00:04:01;95244.34;;;11.81;75.87
23363;BME280;11853;48.080;11.960;2023-02-19T00:06:28;95238.09;;;11.72;76.82
23363;BME280;11853;48.080;11.960;2023-02-19T00:08:55;95233.78;;;11.71;76.96
23363;BME280;11853;48.080;11.960;2023-02-19T00:11:23;95229.13;;;11.73;76.12
23363;BME280;11853;48.080;11.960;2023-02-19T00:13:51;95219.94;;;11.67;76.61
23363;BME280;11853;48.080;11.960;2023-02-19T00:16:21;95218.16;;;11.68;76.23
23363;BME280;11853;48.080;11.960;2023-02-19T00:18:47;95229.84;;;11.75;75.44
23363;BME280;11853;48.080;11.960;2023-02-19T00:21:14;95227.47;;;11.72;75.48
23363;BME280;11853;48.080;11.960;2023-02-19T00:23:40;95228.78;;;11.68;75.41
23363;BME280;11853;48.080;11.960;2023-02-19T00:26:11;95221.25;;;11.63;75.71
23363;BME280;11853;48.080;11.960;2023-02-19T00:28:37;95218.44;;;11.65;75.90
23363;BME280;11853;48.080;11.960;2023-02-19T00:31:12;95211.31;;;11.65;75.52
23363;BME280;11853;48.080;11.960;2023-02-19T00:33:39;95215.50;;;11.68;75.09
23363;BME280;11853;48.080;11.960;2023-02-19T00:36:05;95210.78;;;11.62;75.36
23363;BME280;11853;48.080;11.960;2023-02-19T00:38:34;95214.78;;;11.66;74.99
23363;BME280;11853;48.080;11.960;2023-02-19T00:41:00;95204.84;;;11.68;75.10
23363;BME280;11853;48.080;11.960;2023-02-19T00:43:48;95216.44;;;11.67;75.08
23363;BME280;11853;48.080;11.960;2023-02-19T00:46:27;95216.75;;;11.64;75.54
23363;BME280;11853;48.080;11.960;2023-02-19T00:48:53;95213.13;;;11.65;75.51
23363;BME280;11853;48.080;11.960;2023-02-19T00:51:21;95212.03;;;11.58;76.51
23363;BME280;11853;48.080;11.960;2023-02-19T00:53:47;95206.19;;;11.54;76.60
23363;BME280;11853;48.080;11.960;2023-02-19T00:56:13;95199.75;;;11.57;76.01
23363;BME280;11853;48.080;11.960;2023-02-19T00:58:39;95200.69;;;11.65;75.61
23363;BME280;11853;48.080;11.960;2023-02-19T01:01:05;95187.69;;;11.62;75.58
23363;BME280;11853;48.080;11.960;2023-02-19T01:03:32;95193.84;;;11.63;75.75
23363;BME280;11853;48.080;11.960;2023-02-19T01:05:58;95189.13;;;11.57;75.63
23363;BME280;11853;48.080;11.960;2023-02-19T01:08:23;95184.78;;;11.56;75.81
23363;BME280;11853;48.080;11.960;2023-02-19T01:10:49;95181.81;;;11.59;75.75
23363;BME280;11853;48.080;11.960;2023-02-19T01:13:16;95181.00;;;11.58;75.29
23363;BME280;11853;48.080;11.960;2023-02-19T01:15:42;95179.47;;;11.56;75.36
23363;BME280;11853;48.080;11.960;2023-02-19T01:18:07;95167.03;;;11.56;75.76
23363;BME280;11853;48.080;11.960;2023-02-19T01:20:33;95174.16;;;11.56;76.07
23363;BME280;11853;48.080;11.960;2023-02-19T01:22:59;95173.00;;;11.58;75.64
23363;BME280;11853;48.080;11.960;2023-02-19T01:25:24;95165.50;;;11.54;75.80
23363;BME280;11853;48.080;11.960;2023-02-19T01:27:50;95167.88;;;11.57;75.70
23363;BME280;11853;48.080;11.960;2023-02-19T01:30:16;95146.00;;;11.63;75.03
23363;BME280;11853;48.080;11.960;2023-02-19T01:32:41;95166.88;;;11.58;75.43
23363;BME280;11853;48.080;11.960;2023-02-19T01:35:07;95166.19;;;11.56;75.37
23363;BME280;11853;48.080;11.960;2023-02-19T01:37:33;95157.84;;;11.50;76.11
23363;BME280;11853;48.080;11.960;2023-02-19T01:39:58;95151.66;;;11.50;76.21
23363;BME280;11853;48.080;11.960;2023-02-19T01:42:24;95147.34;;;11.49;76.01
23363;BME280;11853;48.080;11.960;2023-02-19T01:47:17;95147.97;;;11.43;76.45
23363;BME280;11853;48.080;11.960;2023-02-19T01:50:01;95149.09;;;11.40;76.79
23363;BME280;11853;48.080;11.960;2023-02-19T01:52:31;95144.63;;;11.41;77.15
23363;BME280;11853;48.080;11.960;2023-02-19T01:55:00;95143.34;;;11.45;76.81
23363;BME280;11853;48.080;11.960;2023-02-19T01:57:33;95135.13;;;11.38;76.94
23363;BME280;11853;48.080;11.960;2023-02-19T02:00:07;95136.81;;;11.39;76.53
23363;BME280;11853;48.080;11.960;2023-02-19T02:02:34;95133.47;;;11.37;76.94
23363;BME280;11853;48.080;11.960;2023-02-19T02:05:03;95126.31;;;11.38;76.42
23363;BME280;11853;48.080;11.960;2023-02-19T02:07:29;95130.09;;;11.35;76.64
23363;BME280;11853;48.080;11.960;2023-02-19T02:10:13;95121.84;;;11.38;76.34
23363;BME280;11853;48.080;11.960;2023-02-19T02:12:48;95114.03;;;11.37;76.92
23363;BME280;11853;48.080;11.960;2023-02-19T02:15:15;95127.31;;;11.37;76.37
23363;BME280;11853;48.080;11.960;2023-02-19T02:17:55;95119.75;;;11.42;76.12
23363;BME280;11853;48.080;11.960;2023-02-19T02:20:32;95124.78;;;11.35;76.43
23363;BME280;11853;48.080;11.960;2023-02-19T02:26:07;95115.47;;;11.31;76.43
23363;BME280;11853;48.080;11.960;2023-02-19T02:34:26;95118.81;;;11.33;77.07
23363;BME280;11853;48.080;11.960;2023-02-19T02:36:55;95111.13;;;11.30;76.89
23363;BME280;11853;48.080;11.960;2023-02-19T02:39:24;95110.84;;;11.33;77.52
23363;BME280;11853;48.080;11.960;2023-02-19T02:41:58;95095.06;;;11.32;77.78
23363;BME280;11853;48.080;11.960;2023-02-19T02:44:43;95091.41;;;11.33;78.70
23363;BME280;11853;48.080;11.960;2023-02-19T02:47:36;95099.53;;;11.31;78.84
23363;BME280;11853;48.080;11.960;2023-02-19T02:50:10;95096.78;;;11.23;79.43
23363;BME280;11853;48.080;11.960;2023-02-19T02:52:40;95104.06;;;11.21;80.41
23363;BME280;11853;48.080;11.960;2023-02-19T02:55:30;95104.38;;;11.18;80.75
23363;BME280;11853;48.080;11.960;2023-02-19T02:57:58;95098.66;;;11.13;81.35
23363;BME280;11853;48.080;11.960;2023-02-19T03:00:24;95089.34;;;11.09;82.23
23363;BME280;11853;48.080;11.960;2023-02-19T03:03:11;95091.00;;;11.10;82.79
23363;BME280;11853;48.080;11.960;2023-02-19T03:05:38;95085.69;;;11.10;83.32
23363;BME280;11853;48.080;11.960;2023-02-19T03:11:04;95077.09;;;10.98;88.36
23363;BME280;11853;48.080;11.960;2023-02-19T03:14:12;95065.97;;;10.94;90.28
23363;BME280;11853;48.080;11.960;2023-02-19T03:17:06;95072.28;;;10.93;91.55
23363;BME280;11853;48.080;11.960;2023-02-19T03:19:55;95058.44;;;10.90;93.21
23363;BME280;11853;48.080;11.960;2023-02-19T03:22:28;95052.75;;;10.85;93.58
23363;BME280;11853;48.080;11.960;2023-02-19T03:25:00;95054.75;;;10.73;95.13
23363;BME280;11853;48.080;11.960;2023-02-19T03:27:48;95059.31;;;10.63;96.76
23363;BME280;11853;48.080;11.960;2023-02-19T03:30:20;95063.50;;;10.55;98.00
23363;BME280;11853;48.080;11.960;2023-02-19T03:32:57;95061.84;;;10.54;98.77
23363;BME280;11853;48.080;11.960;2023-02-19T03:35:26;95066.75;;;10.49;100.00
23363;BME280;11853;48.080;11.960;2023-02-19T03:38:11;95073.38;;;10.35;100.00
23363;BME280;11853;48.080;11.960;2023-02-19T03:43:47;95073.00;;;10.30;100.00
23363;BME280;11853;48.080;11.960;2023-02-19T03:46:39;95089.75;;;10.31;100.00
23363;BME280;11853;48.080;11.960;2023-02-19T03:49:17;95078.44;;;10.19;100.00
23363;BME280;11853;48.080;11.960;2023-02-19T03:57:36;95079.16;;;10.11;100.00
23363;BME280;11853;48.080;11.960;2023-02-19T04:00:17;95079.03;;;10.03;100.00
23363;BME280;11853;48.080;11.960;2023-02-19T04:03:28;95075.16;;;9.98;100.00
23363;BME280;11853;48.080;11.960;2023-02-19T04:05:38;95072.66;;;9.96;100.00
23363;BME280;11853;48.080;11.960;2023-02-19T04:08:13;95046.03;;;9.88;100.00
23363;BME280;11853;48.080;11.960;2023-02-19T04:10:40;95047.28;;;9.84;100.00
23363;BME280;11853;48.080;11.960;2023-02-19T04:13:44;95057.91;;;9.74;100.00
23363;BME280;11853;48.080;11.960;2023-02-19T04:16:10;95068.63;;;9.82;100.00
23363;BME280;11853;48.080;11.960;2023-02-19T04:18:40;95061.69;;;9.72;100.00
23363;BME280;11853;48.080;11.960;2023-02-19T04:21:08;95067.22;;;9.78;100.00
23363;BME280;11853;48.080;11.960;2023-02-19T04:23:39;95068.63;;;9.73;100.00
23363;BME280;11853;48.080;11.960;2023-02-19T04:26:07;95052.19;;;9.69;100.00
23363;BME280;11853;48.080;11.960;2023-02-19T04:28:33;95046.34;;;9.65;100.00
23363;BME280;11853;48.080;11.960;2023-02-19T04:31:00;95063.06;;;9.66;100.00
23363;BME280;11853;48.080;11.960;2023-02-19T04:33:25;95065.44;;;9.69;100.00
23363;BME280;11853;48.080;11.960;2023-02-19T04:35:51;95053.88;;;9.70;100.00
23363;BME280;11853;48.080;11.960;2023-02-19T04:38:16;95051.63;;;9.75;100.00
23363;BME280;11853;48.080;11.960;2023-02-19T04:40:42;95054.44;;;9.64;100.00
23363;BME280;11853;48.080;11.960;2023-02-19T04:43:08;95056.94;;;9.65;100.00
23363;BME280;11853;48.080;11.960;2023-02-19T04:45:33;95066.13;;;9.61;100.00
23363;BME280;11853;48.080;11.960;2023-02-19T04:51:10;95074.25;;;9.50;100.00
23363;BME280;11853;48.080;11.960;2023-02-19T04:53:36;95079.13;;;9.55;100.00
23363;BME280;11853;48.080;11.960;2023-02-19T04:56:20;95061.41;;;9.55;100.00
23363;BME280;11853;48.080;11.960;2023-02-19T04:58:45;95075.34;;;9.57;100.00
23363;BME280;11853;48.080;11.960;2023-02-19T05:01:11;95067.41;;;9.57;100.00
23363;BME280;11853;48.080;11.960;2023-02-19T05:03:37;95075.66;;;9.54;100.00
23363;BME280;11853;48.080;11.960;2023-02-19T05:06:04;95083.31;;;9.57;100.00
23363;BME280;11853;48.080;11.960;2023-02-19T05:08:30;95079.00;;;9.56;100.00
23363;BME280;11853;48.080;11.960;2023-02-19T05:10:58;95076.34;;;9.56;100.00
23363;BME280;11853;48.080;11.960;2023-02-19T05:13:24;95071.72;;;9.58;100.00
23363;BME280;11853;48.080;11.960;2023-02-19T05:16:03;95069.94;;;9.49;100.00
23363;BME280;11853;48.080;11.960;2023-02-19T05:18:30;95079.97;;;9.45;100.00
23363;BME280;11853;48.080;11.960;2023-02-19T05:20:56;95076.22;;;9.48;100.00
23363;BME280;11853;48.080;11.960;2023-02-19T05:23:23;95090.16;;;9.50;100.00
23363;BME280;11853;48.080;11.960;2023-02-19T05:25:49;95084.56;;;9.53;100.00
23363;BME280;11853;48.080;11.960;2023-02-19T05:28:15;95097.13;;;9.51;100.00
23363;BME280;11853;48.080;11.960;2023-02-19T05:30:51;95086.50;;;9.51;100.00
23363;BME280;11853;48.080;11.960;2023-02-19T05:33:19;95091.38;;;9.46;100.00
23363;BME280;11853;48.080;11.960;2023-02-19T05:35:47;95093.34;;;9.44;100.00
23363;BME280;11853;48.080;11.960;2023-02-19T05:38:14;95097.69;;;9.45;100.00
23363;BME280;11853;48.080;11.960;2023-02-19T05:40:40;95081.94;;;9.53;100.00
23363;BME280;11853;48.080;11.960;2023-02-19T05:43:07;95092.94;;;9.48;100.00
23363;BME280;11853;48.080;11.960;2023-02-19T05:45:35;95109.09;;;9.45;100.00
23363;BME280;11853;48.080;11.960;2023-02-19T05:48:01;95102.81;;;9.46;100.00
23363;BME280;11853;48.080;11.960;2023-02-19T05:50:28;95111.03;;;9.43;100.00
23363;BME280;11853;48.080;11.960;2023-02-19T05:52:54;95112.84;;;9.53;100.00
23363;BME280;11853;48.080;11.960;2023-02-19T05:55:19;95123.59;;;9.51;100.00
23363;BME280;11853;48.080;11.960;2023-02-19T05:57:46;95118.31;;;9.51;100.00
23363;BME280;11853;48.080;11.960;2023-02-19T06:00:15;95115.78;;;9.50;100.00
23363;BME280;11853;48.080;11.960;2023-02-19T06:02:42;95111.06;;;9.53;100.00
23363;BME280;11853;48.080;11.960;2023-02-19T06:05:08;95116.63;;;9.50;100.00
23363;BME280;11853;48.080;11.960;2023-02-19T06:07:34;95116.50;;;9.42;100.00
23363;BME280;11853;48.080;11.960;2023-02-19T06:10:00;95122.47;;;9.44;100.00
23363;BME280;11853;48.080;11.960;2023-02-19T06:12:25;95123.16;;;9.46;100.00
23363;BME280;11853;48.080;11.960;2023-02-19T06:14:52;95124.16;;;9.45;100.00
23363;BME280;11853;48.080;11.960;2023-02-19T06:17:17;95124.44;;;9.52;100.00
23363;BME280;11853;48.080;11.960;2023-02-19T06:19:43;95129.00;;;9.50;100.00
23363;BME280;11853;48.080;11.960;2023-02-19T06:22:09;95121.22;;;9.48;100.00
23363;BME280;11853;48.080;11.960;2023-02-19T06:24:35;95134.91;;;9.53;100.00
23363;BME280;11853;48.080;11.960;2023-02-19T06:27:05;95130.28;;;9.55;100.00
23363;BME280;11853;48.080;11.960;2023-02-19T06:29:31;95139.31;;;9.53;100.00
23363;BME280;11853;48.080;11.960;2023-02-19T06:31:58;95131.53;;;9.51;100.00
23363;BME280;11853;48.080;11.960;2023-02-19T06:34:23;95140.59;;;9.58;100.00
23363;BME280;11853;48.080;11.960;2023-02-19T06:36:50;95154.81;;;9.47;100.00
23363;BME280;11853;48.080;11.960;2023-02-19T06:39:16;95150.34;;;9.48;100.00
23363;BME280;11853;48.080;11.960;2023-02-19T06:41:42;95157.31;;;9.49;100.00
23363;BME280;11853;48.080;11.960;2023-02-19T06:44:07;95163.03;;;9.54;100.00
23363;BME280;11853;48.080;11.960;2023-02-19T06:46:33;95159.97;;;9.49;100.00
23363;BME280;11853;48.080;11.960;2023-02-19T06:49:00;95172.09;;;9.52;100.00
23363;BME280;11853;48.080;11.960;2023-02-19T06:51:27;95160.94;;;9.48;100.00
23363;BME280;11853;48.080;11.960;2023-02-19T06:53:54;95165.25;;;9.49;100.00
23363;BME280;11853;48.080;11.960;2023-02-19T06:56:30;95164.03;;;9.53;100.00
23363;BME280;11853;48.080;11.960;2023-02-19T06:58:58;95165.97;;;9.51;100.00
23363;BME280;11853;48.080;11.960;2023-02-19T07:01:24;95171.81;;;9.55;100.00
23363;BME280;11853;48.080;11.960;2023-02-19T07:03:51;95181.03;;;9.60;100.00
23363;BME280;11853;48.080;11.960;2023-02-19T07:06:18;95180.47;;;9.57;100.00
23363;BME280;11853;48.080;11.960;2023-02-19T07:08:44;95181.59;;;9.54;100.00
23363;BME280;11853;48.080;11.960;2023-02-19T07:11:10;95187.31;;;9.59;100.00
23363;BME280;11853;48.080;11.960;2023-02-19T07:13:35;95184.09;;;9.65;100.00
23363;BME280;11853;48.080;11.960;2023-02-19T07:16:04;95195.41;;;9.67;100.00
23363;BME280;11853;48.080;11.960;2023-02-19T07:18:30;95189.81;;;9.70;100.00
23363;BME280;11853;48.080;11.960;2023-02-19T07:21:10;95189.97;;;9.79;100.00
23363;BME280;11853;48.080;11.960;2023-02-19T07:23:36;95192.47;;;9.80;100.00
23363;BME280;11853;48.080;11.960;2023-02-19T07:26:03;95196.66;;;9.83;100.00
23363;BME280;11853;48.080;11.960;2023-02-19T07:28:29;95194.44;;;9.88;100.00
23363;BME280;11853;48.080;11.960;2023-02-19T07:30:59;95214.22;;;9.84;100.00
23363;BME280;11853;48.080;11.960;2023-02-19T07:33:26;95205.16;;;9.77;100.00
23363;BME280;11853;48.080;11.960;2023-02-19T07:35:51;95204.34;;;9.76;100.00
23363;BME280;11853;48.080;11.960;2023-02-19T07:38:21;95206.41;;;9.82;100.00
23363;BME280;11853;48.080;11.960;2023-02-19T07:40:52;95213.94;;;9.87;100.00
23363;BME280;11853;48.080;11.960;2023-02-19T07:43:18;95211.88;;;9.90;100.00
23363;BME280;11853;48.080;11.960;2023-02-19T07:45:44;95217.28;;;10.08;100.00
23363;BME280;11853;48.080;11.960;2023-02-19T07:48:11;95218.97;;;10.29;100.00
23363;BME280;11853;48.080;11.960;2023-02-19T07:50:36;95229.31;;;10.42;100.00
23363;BME280;11853;48.080;11.960;2023-02-19T07:53:02;95237.19;;;10.61;100.00
23363;BME280;11853;48.080;11.960;2023-02-19T07:55:28;95232.13;;;10.77;100.00
23363;BME280;11853;48.080;11.960;2023-02-19T07:57:57;95247.63;;;10.82;100.00
23363;BME280;11853;48.080;11.960;2023-02-19T08:00:23;95250.66;;;10.97;100.00
23363;BME280;11853;48.080;11.960;2023-02-19T08:02:50;95250.59;;;11.07;100.00
23363;BME280;11853;48.080;11.960;2023-02-19T08:05:26;95250.19;;;11.01;100.00
23363;BME280;11853;48.080;11.960;2023-02-19T08:07:52;95255.16;;;10.87;100.00
23363;BME280;11853;48.080;11.960;2023-02-19T08:10:18;95251.53;;;10.78;100.00
23363;BME280;11853;48.080;11.960;2023-02-19T08:13:03;95256.84;;;10.88;100.00
23363;BME280;11853;48.080;11.960;2023-02-19T08:15:45;95263.59;;;11.10;100.00
23363;BME280;11853;48.080;11.960;2023-02-19T08:18:11;95260.22;;;11.17;100.00
23363;BME280;11853;48.080;11.960;2023-02-19T08:20:37;95263.75;;;10.98;100.00
23363;BME280;11853;48.080;11.960;2023-02-19T08:23:04;95263.81;;;10.89;100.00
23363;BME280;11853;48.080;11.960;2023-02-19T08:25:30;95263.50;;;10.92;100.00
23363;BME280;11853;48.080;11.960;2023-02-19T08:27:56;95257.91;;;10.95;100.00
23363;BME280;11853;48.080;11.960;2023-02-19T08:30:22;95263.94;;;10.97;100.00
23363;BME280;11853;48.080;11.960;2023-02-19T08:32:47;95274.19;;;10.82;100.00
23363;BME280;11853;48.080;11.960;2023-02-19T08:35:13;95263.97;;;10.77;100.00
23363;BME280;11853;48.080;11.960;2023-02-19T08:37:39;95271.69;;;10.71;100.00
23363;BME280;11853;48.080;11.960;2023-02-19T08:40:04;95264.13;;;10.66;100.00
23363;BME280;11853;48.080;11.960;2023-02-19T08:42:30;95267.50;;;10.68;100.00
23363;BME280;11853;48.080;11.960;2023-02-19T08:44:56;95277.84;;;10.62;100.00
23363;BME280;11853;48.080;11.960;2023-02-19T08:47:21;95272.81;;;10.58;100.00
23363;BME280;11853;48.080;11.960;2023-02-19T08:49:47;95277.97;;;10.60;100.00
23363;BME280;11853;48.080;11.960;2023-02-19T08:52:13;95277.97;;;10.60;100.00
23363;BME280;11853;48.080;11.960;2023-02-19T08:54:38;95272.69;;;10.50;100.00
23363;BME280;11853;48.080;11.960;2023-02-19T08:57:04;95282.91;;;10.45;100.00
23363;BME280;11853;48.080;11.960;2023-02-19T08:59:30;95277.16;;;10.50;100.00
23363;BME280;11853;48.080;11.960;2023-02-19T09:01:59;95281.63;;;10.49;100.00
23363;BME280;11853;48.080;11.960;2023-02-19T09:04:25;95276.88;;;10.43;100.00
23363;BME280;11853;48.080;11.960;2023-02-19T09:06:50;95285.41;;;10.37;100.00
23363;BME280;11853;48.080;11.960;2023-02-19T09:09:16;95284.28;;;10.49;100.00
23363;BME280;11853;48.080;11.960;2023-02-19T09:11:42;95298.50;;;10.68;100.00
23363;BME280;11853;48.080;11.960;2023-02-19T09:14:08;95290.38;;;10.79;100.00
23363;BME280;11853;48.080;11.960;2023-02-19T09:16:34;95303.34;;;10.92;100.00
23363;BME280;11853;48.080;11.960;2023-02-19T09:19:00;95309.50;;;10.82;100.00
23363;BME280;11853;48.080;11.960;2023-02-19T09:21:26;95298.50;;;10.68;99.20
23363;BME280;11853;48.080;11.960;2023-02-19T09:23:52;95297.41;;;10.51;100.00
23363;BME280;11853;48.080;11.960;2023-02-19T09:26:18;95301.88;;;10.50;99.13
23363;BME280;11853;48.080;11.960;2023-02-19T09:28:44;95287.22;;;10.46;100.00
23363;BME280;11853;48.080;11.960;2023-02-19T09:31:12;95300.22;;;10.40;100.00
23363;BME280;11853;48.080;11.960;2023-02-19T09:33:44;95284.56;;;10.36;99.74
23363;BME280;11853;48.080;11.960;2023-02-19T09:36:13;95291.81;;;10.34;97.42
23363;BME280;11853;48.080;11.960;2023-02-19T09:38:39;95280.50;;;10.23;98.65
23363;BME280;11853;48.080;11.960;2023-02-19T09:41:18;95298.06;;;10.14;99.09
23363;BME280;11853;48.080;11.960;2023-02-19T09:43:46;95304.22;;;10.14;100.00
23363;BME280;11853;48.080;11.960;2023-02-19T09:48:47;95309.94;;;10.20;99.81
23363;BME280;11853;48.080;11.960;2023-02-19T09:51:14;95319.72;;;10.19;98.21
23363;BME280;11853;48.080;11.960;2023-02-19T09:53:45;95318.44;;;10.13;97.85
23363;BME280;11853;48.080;11.960;2023-02-19T09:56:12;95307.69;;;10.05;95.73
23363;BME280;11853;48.080;11.960;2023-02-19T09:58:57;95311.19;;;10.06;95.55
23363;BME280;11853;48.080;11.960;2023-02-19T10:01:27;95310.06;;;10.08;93.43
23363;BME280;11853;48.080;11.960;2023-02-19T10:03:55;95323.47;;;10.26;92.90
23363;BME280;11853;48.080;11.960;2023-02-19T10:06:26;95314.97;;;10.32;90.83
23363;BME280;11853;48.080;11.960;2023-02-19T10:08:58;95321.41;;;10.30;90.05
23363;BME280;11853;48.080;11.960;2023-02-19T10:11:30;95326.56;;;10.22;88.39
23363;BME280;11853;48.080;11.960;2023-02-19T10:14:06;95341.44;;;10.03;89.91
23363;BME280;11853;48.080;11.960;2023-02-19T10:16:35;95343.97;;;10.05;90.25
23363;BME280;11853;48.080;11.960;2023-02-19T10:19:08;95354.84;;;10.02;90.22
23363;BME280;11853;48.080;11.960;2023-02-19T10:21:36;95338.09;;;9.91;90.57
23363;BME280;11853;48.080;11.960;2023-02-19T10:24:04;95332.78;;;10.01;88.51
23363;BME280;11853;48.080;11.960;2023-02-19T10:26:31;95334.91;;;10.07;88.07
23363;BME280;11853;48.080;11.960;2023-02-19T10:29:00;95341.59;;;10.11;86.38
23363;BME280;11853;48.080;11.960;2023-02-19T10:31:26;95347.63;;;10.13;86.04
23363;BME280;11853;48.080;11.960;2023-02-19T10:33:54;95351.28;;;10.51;84.52
23363;BME280;11853;48.080;11.960;2023-02-19T10:36:32;95338.97;;;10.70;82.90
23363;BME280;11853;48.080;11.960;2023-02-19T10:39:02;95344.44;;;10.78;83.60
23363;BME280;11853;48.080;11.960;2023-02-19T10:41:30;95344.19;;;11.18;82.24
23363;BME280;11853;48.080;11.960;2023-02-19T10:44:21;95355.03;;;11.44;81.20
23363;BME280;11853;48.080;11.960;2023-02-19T10:46:49;95356.66;;;11.92;78.97
23363;BME280;11853;48.080;11.960;2023-02-19T10:49:36;95352.22;;;12.11;77.65
23363;BME280;11853;48.080;11.960;2023-02-19T10:52:16;95354.59;;;12.14;77.78
23363;BME280;11853;48.080;11.960;2023-02-19T10:54:44;95349.16;;;12.51;76.04
23363;BME280;11853;48.080;11.960;2023-02-19T10:57:23;95342.75;;;12.62;74.39
23363;BME280;11853;48.080;11.960;2023-02-19T11:02:39;95353.94;;;12.48;74.59
23363;BME280;11853;48.080;11.960;2023-02-19T11:07:54;95347.19;;;12.97;77.90
23363;BME280;11853;48.080;11.960;2023-02-19T11:10:37;95347.09;;;13.51;74.46
23363;BME280;11853;48.080;11.960;2023-02-19T11:13:06;95330.53;;;13.73;73.54
23363;BME280;11853;48.080;11.960;2023-02-19T11:15:39;95339.56;;;13.81;77.15
23363;BME280;11853;48.080;11.960;2023-02-19T11:18:24;95347.88;;;13.78;74.25
23363;BME280;11853;48.080;11.960;2023-02-19T11:20:56;95340.34;;;13.39;72.11
23363;BME280;11853;48.080;11.960;2023-02-19T11:23:36;95339.47;;;13.12;72.28
23363;BME280;11853;48.080;11.960;2023-02-19T11:26:05;95340.59;;;12.83;72.23
23363;BME280;11853;48.080;11.960;2023-02-19T11:28:40;95346.09;;;12.64;73.40
23363;BME280;11853;48.080;11.960;2023-02-19T11:34:00;95358.41;;;12.29;71.02
23363;BME280;11853;48.080;11.960;2023-02-19T11:36:35;95348.75;;;12.28;73.17
23363;BME280;11853;48.080;11.960;2023-02-19T11:50:19;95358.16;;;11.67;74.89
23363;BME280;11853;48.080;11.960;2023-02-19T11:55:24;95359.50;;;11.54;75.48
23363;BME280;11853;48.080;11.960;2023-02-19T12:00:51;95367.06;;;11.48;80.92
23363;BME280;11853;48.080;11.960;2023-02-19T12:03:44;95357.13;;;11.41;84.93
23363;BME280;11853;48.080;11.960;2023-02-19T12:06:29;95363.16;;;11.43;89.30
23363;BME280;11853;48.080;11.960;2023-02-19T12:12:17;95357.97;;;11.51;90.78
23363;BME280;11853;48.080;11.960;2023-02-19T12:15:17;95362.03;;;11.45;89.17
23363;BME280;11853;48.080;11.960;2023-02-19T12:17:59;95356.41;;;11.48;88.80
23363;BME280;11853;48.080;11.960;2023-02-19T12:37:22;95355.19;;;10.76;87.34
23363;BME280;11853;48.080;11.960;2023-02-19T12:40:18;95359.38;;;10.79;86.84
23363;BME280;11853;48.080;11.960;2023-02-19T12:48:30;95362.97;;;10.97;79.91
23363;BME280;11853;48.080;11.960;2023-02-19T12:51:08;95363.13;;;10.96;80.57
23363;BME280;11853;48.080;11.960;2023-02-19T12:53:42;95372.31;;;11.01;78.40
23363;BME280;11853;48.080;11.960;2023-02-19T12:56:16;95368.44;;;11.05;78.62
23363;BME280;11853;48.080;11.960;2023-02-19T12:59:03;95364.09;;;10.95;76.74
23363;BME280;11853;48.080;11.960;2023-02-19T13:01:34;95362.84;;;10.99;77.64
23363;BME280;11853;48.080;11.960;2023-02-19T13:04:26;95371.53;;;10.91;78.03
23363;BME280;11853;48.080;11.960;2023-02-19T13:12:01;95373.06;;;10.84;79.08
23363;BME280;11853;48.080;11.960;2023-02-19T13:14:36;95372.78;;;10.77;78.49
23363;BME280;11853;48.080;11.960;2023-02-19T13:19:59;95385.94;;;10.59;79.42
23363;BME280;11853;48.080;11.960;2023-02-19T13:22:38;95379.50;;;10.62;79.50
23363;BME280;11853;48.080;11.960;2023-02-19T13:26:18;95388.44;;;10.71;78.42
23363;BME280;11853;48.080;11.960;2023-02-19T13:28:57;95384.53;;;10.65;75.98
23363;BME280;11853;48.080;11.960;2023-02-19T13:34:59;95385.66;;;10.82;74.72
23363;BME280;11853;48.080;11.960;2023-02-19T13:37:31;95396.94;;;10.94;71.82
23363;BME280;11853;48.080;11.960;2023-02-19T13:40:16;95386.91;;;10.88;72.40
23363;BME280;11853;48.080;11.960;2023-02-19T13:42:51;95376.00;;;10.81;72.28
23363;BME280;11853;48.080;11.960;2023-02-19T13:50:29;95353.50;;;10.85;73.25
23363;BME280;11853;48.080;11.960;2023-02-19T13:52:58;95374.47;;;10.88;72.42
23363;BME280;11853;48.080;11.960;2023-02-19T14:06:07;95389.00;;;10.74;74.46
23363;BME280;11853;48.080;11.960;2023-02-19T14:08:56;95393.19;;;10.77;74.89
23363;BME280;11853;48.080;11.960;2023-02-19T14:14:33;95390.94;;;10.72;74.75
23363;BME280;11853;48.080;11.960;2023-02-19T14:19:55;95407.69;;;10.73;75.29
23363;BME280;11853;48.080;11.960;2023-02-19T14:28:20;95412.19;;;10.63;75.81
23363;BME280;11853;48.080;11.960;2023-02-19T14:30:55;95404.91;;;10.55;76.60
23363;BME280;11853;48.080;11.960;2023-02-19T14:33:36;95408.81;;;10.51;77.93
23363;BME280;11853;48.080;11.960;2023-02-19T14:36:13;95417.47;;;10.43;76.81
23363;BME280;11853;48.080;11.960;2023-02-19T14:39:04;95430.28;;;10.38;77.56
23363;BME280;11853;48.080;11.960;2023-02-19T14:41:32;95424.16;;;10.37;76.72
23363;BME280;11853;48.080;11.960;2023-02-19T14:44:02;95411.41;;;10.22;76.43
23363;BME280;11853;48.080;11.960;2023-02-19T14:46:31;95414.31;;;10.19;76.37
23363;BME280;11853;48.080;11.960;2023-02-19T14:51:54;95413.19;;;10.21;75.87
23363;BME280;11853;48.080;11.960;2023-02-19T14:57:00;95426.31;;;10.23;76.98
23363;BME280;11853;48.080;11.960;2023-02-19T14:59:28;95425.34;;;10.24;76.92
23363;BME280;11853;48.080;11.960;2023-02-19T15:01:59;95426.31;;;10.23;76.71
23363;BME280;11853;48.080;11.960;2023-02-19T15:04:27;95429.38;;;10.18;76.49
23363;BME280;11853;48.080;11.960;2023-02-19T15:06:55;95432.75;;;10.20;77.10
23363;BME280;11853;48.080;11.960;2023-02-19T15:09:28;95427.44;;;10.20;77.78
23363;BME280;11853;48.080;11.960;2023-02-19T15:11:55;95424.22;;;10.17;78.08